Time;durP1;ratioP1;P1;durP2;ratioP2;P2;SDS_P1;SDS_P2;PMS_P1;PMS_P2;Temp;Humidity;BMP_temperature;BMP_pressure;BME280_temperature;BME280_humidity;BME280_pressure;Samples;Min_cycle;Max_cycle;Signal;HPM_P1;HPM_P2
2023/06/11 00:01:14;;;;;;;8.80;4.70;;;;;;;17.38;100.00;100935.66;5196499;28;20033;-73
2023/06/11 00:03:46;;;;;;;5.75;4.38;;;;;;;17.48;100.00;100937.66;5200381;28;20033;-73
2023/06/11 00:06:21;;;;;;;6.93;4.47;;;;;;;17.45;100.00;100937.03;5197337;28;20072;-73
2023/06/11 00:08:53;;;;;;;10.52;4.68;;;;;;;17.48;100.00;100936.84;5197406;28;20108;-70
2023/06/11 00:11:23;;;;;;;8.15;4.63;;;;;;;17.42;100.00;100942.47;5199925;28;20100;-72
2023/06/11 00:13:54;;;;;;;9.70;4.10;;;;;;;17.23;100.00;100955.00;5200257;28;20131;-72
2023/06/11 00:16:24;;;;;;;6.78;4.38;;;;;;;17.11;100.00;100961.81;5198831;28;20036;-73
2023/06/11 00:18:55;;;;;;;7.20;4.38;;;;;;;17.27;100.00;100953.88;5199682;28;20120;-71
2023/06/11 00:21:25;;;;;;;8.85;4.72;;;;;;;17.31;100.00;100950.13;5200442;28;20531;-72
2023/06/11 00:23:56;;;;;;;7.05;4.63;;;;;;;17.21;100.00;100956.88;5200103;28;20025;-72
2023/06/11 00:26:28;;;;;;;9.85;4.68;;;;;;;17.19;100.00;100956.09;5199974;28;20029;-72
2023/06/11 00:28:58;;;;;;;9.73;4.60;;;;;;;17.12;100.00;100960.88;5199799;28;20100;-73
2023/06/11 00:31:28;;;;;;;7.43;4.53;;;;;;;17.07;100.00;100957.66;5200101;28;20574;-72
2023/06/11 00:34:00;;;;;;;12.10;5.03;;;;;;;17.11;100.00;100955.69;5200240;28;20033;-73
2023/06/11 00:36:30;;;;;;;9.80;4.57;;;;;;;17.07;100.00;100960.28;5200824;28;20029;-73
2023/06/11 00:39:01;;;;;;;10.13;4.97;;;;;;;17.16;100.00;100958.94;5199540;28;20035;-72
2023/06/11 00:41:32;;;;;;;7.80;4.18;;;;;;;17.29;100.00;100955.50;5198687;28;20057;-73
2023/06/11 00:44:02;;;;;;;11.48;4.18;;;;;;;17.25;100.00;100956.63;5199125;28;20140;-73
2023/06/11 00:46:33;;;;;;;8.55;4.15;;;;;;;17.26;100.00;100957.44;5201022;28;20337;-72
2023/06/11 00:49:03;;;;;;;10.55;4.55;;;;;;;17.34;100.00;100960.56;5189926;28;20082;-73
2023/06/11 00:51:34;;;;;;;6.95;4.18;;;;;;;17.26;100.00;100962.75;5198027;28;20038;-73
2023/06/11 00:54:05;;;;;;;10.90;4.85;;;;;;;17.36;100.00;100958.69;5199127;28;20033;-72
2023/06/11 00:56:39;;;;;;;9.57;4.10;;;;;;;17.28;100.00;100958.25;5197249;28;20156;-73
2023/06/11 00:59:11;;;;;;;4.70;3.50;;;;;;;17.29;100.00;100954.66;5197760;28;20082;-73
2023/06/11 01:01:46;;;;;;;9.52;4.15;;;;;;;17.24;100.00;100948.75;5197429;28;20029;-73
2023/06/11 01:04:17;;;;;;;9.25;3.65;;;;;;;17.20;100.00;100949.88;5197480;28;20392;-72
2023/06/11 01:06:51;;;;;;;11.32;4.25;;;;;;;17.15;100.00;100962.50;5198140;28;20422;-71
2023/06/11 01:09:22;;;;;;;8.10;4.18;;;;;;;17.09;100.00;100954.91;5199678;28;20036;-73
2023/06/11 01:11:55;;;;;;;8.93;3.58;;;;;;;17.23;100.00;100958.50;5198305;28;20479;-72
2023/06/11 01:14:25;;;;;;;7.78;4.15;;;;;;;17.24;100.00;100959.31;5197412;28;20094;-73
2023/06/11 01:17:04;;;;;;;7.55;3.92;;;;;;;17.22;100.00;100958.56;5196464;28;20388;-72
2023/06/11 01:19:37;;;;;;;8.43;4.32;;;;;;;17.11;100.00;100963.63;5195815;28;20120;-73
2023/06/11 01:22:34;;;;;;;10.90;4.30;;;;;;;16.96;100.00;100964.47;5197054;28;20515;-73
2023/06/11 01:25:32;;;;;;;6.38;4.15;;;;;;;16.90;100.00;100964.78;5191679;28;20538;-72
2023/06/11 01:28:07;;;;;;;8.65;4.50;;;;;;;17.00;100.00;100971.28;5196074;28;20038;-72
2023/06/11 01:30:43;;;;;;;10.32;3.50;;;;;;;16.95;100.00;100973.34;5196027;28;20498;-72
2023/06/11 01:33:13;;;;;;;;;;;;;;;16.87;100.00;100971.13;5195375;28;20108;-72
2023/06/11 01:35:45;;;;;;;6.80;4.38;;;;;;;16.91;100.00;100967.38;5199301;28;20384;-72
2023/06/11 01:38:15;;;;;;;9.00;3.92;;;;;;;16.97;100.00;100972.28;5197241;28;20036;-72
2023/06/11 01:40:46;;;;;;;8.93;3.72;;;;;;;16.84;100.00;100970.44;5198805;28;20483;-73
2023/06/11 01:43:16;;;;;;;9.40;3.67;;;;;;;16.86;100.00;100965.91;5197618;28;20106;-72
2023/06/11 01:45:46;;;;;;;7.47;3.97;;;;;;;16.88;100.00;100972.81;5198162;28;20048;-72
2023/06/11 01:48:17;;;;;;;10.77;4.30;;;;;;;16.72;100.00;100976.38;5196212;28;20513;-72
2023/06/11 01:50:47;;;;;;;10.75;4.18;;;;;;;16.65;100.00;100979.41;5197110;28;20026;-73
2023/06/11 01:53:18;;;;;;;7.85;4.03;;;;;;;16.58;100.00;100978.88;5197619;28;20036;-73
2023/06/11 01:55:49;;;;;;;7.25;3.53;;;;;;;16.57;100.00;100971.91;5197110;28;20083;-71
2023/06/11 01:58:19;;;;;;;8.45;4.15;;;;;;;16.64;100.00;100972.44;5196283;28;20504;-72
2023/06/11 02:00:50;;;;;;;8.60;3.90;;;;;;;16.53;100.00;100980.09;5194292;28;20031;-72
2023/06/11 02:03:20;;;;;;;6.55;3.88;;;;;;;16.39;100.00;100978.16;5197655;28;20104;-72
2023/06/11 02:05:51;;;;;;;6.63;3.75;;;;;;;16.25;100.00;100980.63;5197484;28;20025;-72
2023/06/11 02:08:21;;;;;;;7.30;3.97;;;;;;;16.15;100.00;100978.56;5196513;28;20032;-71
2023/06/11 02:10:51;;;;;;;7.90;3.83;;;;;;;15.95;100.00;100976.09;5198879;28;20175;-72
2023/06/11 02:13:22;;;;;;;9.35;4.10;;;;;;;15.85;100.00;100981.00;5199179;28;20104;-72
2023/06/11 02:15:52;;;;;;;6.97;4.00;;;;;;;15.84;100.00;100983.72;5198043;28;20037;-73
2023/06/11 02:18:22;;;;;;;8.40;3.60;;;;;;;15.75;100.00;100985.03;5197587;28;20029;-72
2023/06/11 02:20:52;;;;;;;6.55;3.70;;;;;;;15.78;100.00;100984.88;5196506;28;20064;-73
2023/06/11 02:23:23;;;;;;;9.35;3.85;;;;;;;15.66;100.00;100985.47;5198542;28;20017;-73
2023/06/11 02:25:53;;;;;;;7.80;3.73;;;;;;;15.53;100.00;100988.81;5197762;28;20025;-73
2023/06/11 02:28:23;;;;;;;6.68;3.80;;;;;;;15.36;100.00;100986.97;5198967;28;21215;-72
2023/06/11 02:30:53;;;;;;;6.90;3.92;;;;;;;15.60;100.00;100983.16;5194952;28;20526;-73
2023/06/11 02:33:24;;;;;;;7.67;4.40;;;;;;;15.59;100.00;100983.22;5198615;28;21179;-72
2023/06/11 02:35:54;;;;;;;9.52;4.03;;;;;;;15.57;100.00;100985.91;5193346;28;20276;-73
2023/06/11 02:38:24;;;;;;;6.72;3.80;;;;;;;15.50;100.00;100984.53;5198849;28;20322;-72
2023/06/11 02:40:55;;;;;;;6.00;3.63;;;;;;;15.51;100.00;100988.88;5197493;28;20083;-73
2023/06/11 02:43:25;;;;;;;11.52;5.15;;;;;;;15.61;100.00;100987.50;5196718;28;20040;-73
2023/06/11 02:45:55;;;;;;;8.68;4.97;;;;;;;15.55;100.00;100982.50;5198890;28;20487;-73
2023/06/11 02:48:26;;;;;;;7.10;4.50;;;;;;;15.49;100.00;100981.94;5196755;28;23271;-73
2023/06/11 02:50:56;;;;;;;6.95;3.72;;;;;;;15.56;100.00;100983.38;5198203;28;20039;-72
2023/06/11 02:53:26;;;;;;;5.93;3.72;;;;;;;15.52;100.00;100990.56;5198355;28;20672;-72
2023/06/11 02:55:56;;;;;;;7.72;3.53;;;;;;;15.45;100.00;100986.53;5196372;28;20034;-72
2023/06/11 02:58:27;;;;;;;8.98;3.58;;;;;;;15.34;100.00;100986.19;5194545;28;20482;-72
2023/06/11 03:00:57;;;;;;;11.23;4.10;;;;;;;15.05;100.00;100986.69;5193886;28;20025;-71
2023/06/11 03:03:27;;;;;;;7.13;4.03;;;;;;;15.08;100.00;100976.03;5198572;28;20038;-73
2023/06/11 03:05:58;;;;;;;8.07;4.22;;;;;;;14.94;100.00;100991.63;5197894;28;20025;-72
2023/06/11 03:08:28;;;;;;;7.25;3.97;;;;;;;14.92;100.00;100990.84;5196316;28;20080;-72
2023/06/11 03:10:58;;;;;;;9.38;4.88;;;;;;;14.92;100.00;100992.63;5197326;28;20017;-72
2023/06/11 03:13:28;;;;;;;5.90;4.10;;;;;;;14.93;100.00;100991.69;5198780;28;20041;-72
2023/06/11 03:15:59;;;;;;;6.38;4.20;;;;;;;14.88;100.00;100997.16;5196748;28;20499;-72
2023/06/11 03:18:29;;;;;;;6.43;3.78;;;;;;;14.98;100.00;101001.09;5195963;28;20116;-72
2023/06/11 03:20:59;;;;;;;6.10;4.10;;;;;;;14.98;100.00;101000.25;5199179;28;20036;-72
2023/06/11 03:23:30;;;;;;;6.97;4.65;;;;;;;14.80;100.00;100997.59;5195312;28;20045;-72
2023/06/11 03:26:00;;;;;;;8.18;3.90;;;;;;;14.91;100.00;100997.03;5200314;28;20021;-73
2023/06/11 03:28:30;;;;;;;6.43;3.95;;;;;;;14.95;100.00;100992.47;5199683;28;20120;-72
2023/06/11 03:31:02;;;;;;;9.63;4.22;;;;;;;15.05;100.00;100999.84;5199432;28;20083;-72
2023/06/11 03:33:32;;;;;;;6.25;3.80;;;;;;;15.18;100.00;100995.72;5202674;28;20020;-72
2023/06/11 03:36:02;;;;;;;6.45;3.85;;;;;;;15.16;100.00;100992.31;5201738;28;20032;-72
2023/06/11 03:38:33;;;;;;;7.90;3.88;;;;;;;15.19;100.00;100996.59;5200059;28;20593;-73
2023/06/11 03:41:03;;;;;;;6.20;4.03;;;;;;;15.20;100.00;100999.13;5201880;28;20033;-72
2023/06/11 03:43:33;;;;;;;6.32;4.00;;;;;;;15.39;100.00;100996.53;5200013;28;20028;-72
2023/06/11 03:46:03;;;;;;;9.15;4.32;;;;;;;15.35;100.00;100995.81;5201146;28;20030;-72
2023/06/11 03:48:34;;;;;;;6.95;3.97;;;;;;;15.34;100.00;100999.38;5200829;28;20032;-72
2023/06/11 03:51:04;;;;;;;8.57;3.75;;;;;;;15.36;100.00;101000.16;5198892;28;20079;-72
2023/06/11 03:53:34;;;;;;;6.65;3.50;;;;;;;15.65;100.00;100999.59;5197685;28;20452;-72
2023/06/11 03:56:05;;;;;;;5.97;3.72;;;;;;;15.59;100.00;101004.31;5201356;28;20064;-72
2023/06/11 03:58:35;;;;;;;7.22;3.70;;;;;;;15.58;100.00;101003.47;5198426;28;20029;-74
2023/06/11 04:01:05;;;;;;;6.20;4.22;;;;;;;15.55;100.00;101003.59;5199228;28;20033;-71
2023/06/11 04:03:36;;;;;;;5.43;3.75;;;;;;;15.69;100.00;101005.56;5200030;28;20036;-72
2023/06/11 04:06:06;;;;;;;9.43;3.65;;;;;;;15.81;100.00;101012.84;5200815;28;20314;-71
2023/06/11 04:08:36;;;;;;;7.30;3.95;;;;;;;15.86;100.00;101013.50;5201992;28;20351;-72
2023/06/11 04:14:55;;;;;;;;;;;;;;;15.96;100.00;101010.31;5212711;28;20072;-91
2023/06/11 04:18:05;;;;;;;8.15;3.55;;;;;;;16.12;100.00;101019.16;5209825;28;20077;-92
2023/06/11 04:20:38;;;;;;;6.82;3.78;;;;;;;16.05;100.00;101017.75;5197023;28;20040;-91
2023/06/11 04:23:31;;;;;;;6.85;3.60;;;;;;;16.13;100.00;101020.84;5190412;28;20088;-91
2023/06/11 04:26:07;;;;;;;5.63;3.40;;;;;;;16.13;100.00;101012.94;5210972;28;20031;-91
2023/06/11 04:29:00;;;;;;;10.93;3.80;;;;;;;16.19;100.00;101017.06;5190893;28;20040;-90
2023/06/11 04:31:33;;;;;;;10.35;3.90;;;;;;;16.16;100.00;101018.06;5187225;28;20173;-91
2023/06/11 04:34:39;;;;;;;;;;;;;;;;;;;;;
2023/06/11 04:37:30;;;;;;;7.28;3.67;;;;;;;16.35;100.00;101016.19;5184055;28;20025;-92
2023/06/11 04:43:25;;;;;;;6.47;3.88;;;;;;;16.69;100.00;101013.50;5188243;28;20045;-91
2023/06/11 04:46:18;;;;;;;;;;;;;;;;;;;;;
2023/06/11 04:49:06;;;;;;;5.65;3.47;;;;;;;21.48;80.70;100993.09;5187795;28;20029;-92
2023/06/11 04:51:40;;;;;;;6.88;3.58;;;;;;;22.09;77.92;100993.72;5186520;28;20038;-92
2023/06/11 04:54:31;;;;;;;7.15;3.00;;;;;;;22.41;77.54;100997.47;5190678;28;20083;-91
2023/06/11 04:57:22;;;;;;;7.43;3.00;;;;;;;23.43;75.75;100990.06;5186778;28;20018;-91
2023/06/11 05:00:32;;;;;;;;;;;;;;;;;;;;;
2023/06/11 05:03:31;;;;;;;8.20;3.42;;;;;;;24.40;71.54;100986.19;5128986;28;20046;-90
2023/06/11 05:06:23;;;;;;;;;;;;;;;;;;;;;
2023/06/11 05:09:26;;;;;;;5.57;2.97;;;;;;;26.43;64.95;100984.50;5189562;28;20117;-90
2023/06/11 05:12:09;;;;;;;;;;;;;;;;;;;;;
2023/06/11 05:14:53;;;;;;;7.40;3.20;;;;;;;24.49;68.78;100993.44;5189990;28;20032;-89
2023/06/11 05:17:27;;;;;;;5.38;2.90;;;;;;;25.12;67.92;100993.19;5188392;28;20022;-90
2023/06/11 05:20:58;;;;;;;7.05;3.13;;;;;;;25.56;66.91;100998.06;5187512;28;20045;-90
2023/06/11 05:24:06;;;;;;;;;;;;;;;;;;;;;
2023/06/11 05:27:16;;;;;;;5.68;2.80;;;;;;;26.71;64.09;100984.44;5189018;28;20026;-90
2023/06/11 05:30:25;;;;;;;;;;;;;;;;;;;;;
2023/06/11 05:33:07;;;;;;;5.07;3.05;;;;;;;27.71;60.99;100990.56;5129045;28;20081;-91
2023/06/11 05:35:47;;;;;;;6.38;3.17;;;;;;;28.71;59.54;100990.00;5227568;28;20040;-91
2023/06/11 05:38:19;;;;;;;6.60;2.85;;;;;;;29.19;55.66;100979.47;5188968;28;20046;-90
2023/06/11 05:41:00;;;;;;;5.13;2.95;;;;;;;28.26;57.92;100983.97;5203832;28;20121;-91
2023/06/11 05:43:44;;;;;;;10.10;3.65;;;;;;;27.77;57.99;100995.31;5188643;28;20109;-89
2023/06/11 05:46:17;;;;;;;5.60;3.10;;;;;;;26.56;61.86;100993.09;5190982;28;20037;-91
2023/06/11 05:48:51;;;;;;;8.57;3.15;;;;;;;26.24;62.88;100992.59;5192134;28;20397;-91
2023/06/11 05:51:24;;;;;;;9.15;3.38;;;;;;;25.68;65.97;100996.97;5185325;28;20029;-89
2023/06/11 05:54:07;;;;;;;6.65;3.60;;;;;;;24.77;66.75;101003.47;5184744;28;20029;-90
2023/06/11 05:56:42;;;;;;;8.57;3.67;;;;;;;24.47;68.53;101005.22;5186048;28;20110;-91
2023/06/11 05:59:12;;;;;;;7.43;3.40;;;;;;;24.23;69.67;101010.84;5182478;28;20638;-91
2023/06/11 06:01:52;;;;;;;7.55;3.70;;;;;;;24.01;68.77;101002.13;5184512;28;20028;-90
2023/06/11 06:04:25;;;;;;;7.57;3.58;;;;;;;23.82;70.47;101008.13;5184328;28;20036;-90
2023/06/11 06:06:55;;;;;;;9.15;3.50;;;;;;;23.84;70.43;101011.53;5184699;28;20018;-91
2023/06/11 06:09:26;;;;;;;7.63;3.88;;;;;;;23.77;69.55;101012.13;5189526;28;20072;-90
2023/06/11 06:12:03;;;;;;;7.03;3.97;;;;;;;23.72;70.72;101007.16;5183284;28;20392;-90
2023/06/11 06:14:36;;;;;;;6.38;3.95;;;;;;;23.52;70.39;101010.63;5187583;28;20084;-90
2023/06/11 06:17:07;;;;;;;6.40;3.88;;;;;;;23.86;70.16;101009.56;5184599;28;20054;-90
2023/06/11 06:19:37;;;;;;;5.38;3.13;;;;;;;23.83;70.65;101020.50;5184487;28;20065;-90
2023/06/11 06:22:10;;;;;;;6.22;3.70;;;;;;;23.75;75.04;101017.63;5180810;28;20040;-90
2023/06/11 06:24:41;;;;;;;8.50;4.10;;;;;;;24.08;69.40;101019.31;5182227;28;20036;-90
2023/06/11 06:27:16;;;;;;;8.73;3.47;;;;;;;24.74;67.63;101017.94;5182950;28;20033;-92
2023/06/11 06:29:59;;;;;;;;;;;;;;;;;;;;;
2023/06/11 06:32:40;;;;;;;;;;;;;;;;;;;;;
2023/06/11 06:35:20;;;;;;;7.95;3.10;;;;;;;25.04;65.63;101017.06;5199346;28;20033;-92
2023/06/11 06:38:01;;;;;;;;;;;;;;;;;;;;;
2023/06/11 06:40:50;;;;;;;;;;;;;;;;;;;;;
2023/06/11 06:43:33;;;;;;;;;;;;;;;;;;;;;
2023/06/11 06:46:33;;;;;;;;;;;;;;;;;;;;;
2023/06/11 06:49:38;;;;;;;6.13;3.53;;;;;;;26.13;58.76;101014.16;5200568;28;20124;-92
2023/06/11 06:52:56;;;;;;;;;;;;;;;;;;;;;
2023/06/11 06:55:59;;;;;;;;;;;;;;;;;;;;;
2023/06/11 06:58:53;;;;;;;4.53;2.80;;;;;;;26.76;56.87;101031.28;5198920;28;20026;-92
2023/06/11 07:01:42;;;;;;;;;;;;;;;;;;;;;
2023/06/11 07:04:48;;;;;;;;;;;;;;;;;;;;;
2023/06/11 07:07:28;;;;;;;;;;;;;;;;;;;;;
2023/06/11 07:10:32;;;;;;;;;;;;;;;;;;;;;
2023/06/11 07:17:03;;;;;;;;;;;;;;;;;;;;;
2023/06/11 07:20:24;;;;;;;;;;;;;;;;;;;;;
2023/06/11 07:23:37;;;;;;;;;;;;;;;;;;;;;
2023/06/11 07:26:21;;;;;;;;;;;;;;;;;;;;;
2023/06/11 07:33:00;;;;;;;;;;;;;;;;;;;;;
2023/06/11 07:35:46;;;;;;;;;;;;;;;;;;;;;
2023/06/11 07:38:50;;;;;;;;;;;;;;;;;;;;;
2023/06/11 07:48:28;;;;;;;;;;;;;;;;;;;;;
2023/06/11 07:51:52;;;;;;;;;;;;;;;;;;;;;
2023/06/11 07:59:05;;;;;;;5.85;2.35;;;;;;;31.24;46.90;101023.84;5177619;28;20064;-91
2023/06/11 08:12:56;;;;;;;;;;;;;;;;;;;;;
2023/06/11 08:16:15;;;;;;;4.63;2.58;;;;;;;31.62;48.25;101023.81;5203216;28;20041;-92
2023/06/11 08:23:00;;;;;;;;;;;;;;;;;;;;;
2023/06/11 08:40:57;;;;;;;;;;;;;;;;;;;;;
2023/06/11 08:43:45;;;;;;;;;;;;;;;;;;;;;
2023/06/11 08:46:22;;;;;;;8.23;2.40;;;;;;;32.07;48.12;101007.59;5196649;28;20076;-91
2023/06/11 08:52:25;;;;;;;7.25;2.28;;;;;;;32.32;48.14;101021.78;5175977;23;20049;-76
2023/06/11 08:54:56;;;;;;;3.42;2.63;;;;;;;30.67;49.96;101024.16;5183583;28;20025;-76
2023/06/11 08:57:26;;;;;;;3.88;1.90;;;;;;;30.33;50.84;101021.66;5184232;28;20041;-76
2023/06/11 08:59:56;;;;;;;3.87;2.13;;;;;;;30.30;49.91;101026.53;5187964;28;20511;-76
2023/06/11 09:02:27;;;;;;;4.30;2.30;;;;;;;30.29;49.49;101019.47;5184638;28;20327;-75
2023/06/11 09:04:57;;;;;;;7.85;2.63;;;;;;;31.24;49.50;101018.44;5206046;23;20963;-72
2023/06/11 09:07:28;;;;;;;4.30;2.38;;;;;;;30.55;49.78;101014.69;5186164;28;20072;-72
2023/06/11 09:10:09;;;;;;;4.18;2.45;;;;;;;29.69;52.78;101020.72;5183387;28;20058;-72
2023/06/11 09:12:39;;;;;;;4.00;2.10;;;;;;;30.93;49.84;101010.25;5185834;28;20463;-72
2023/06/11 09:15:11;;;;;;;11.48;2.40;;;;;;;30.84;50.37;101011.28;5182698;28;20072;-72
2023/06/11 09:17:43;;;;;;;4.18;2.47;;;;;;;31.12;49.26;101009.88;5187468;28;20026;-72
2023/06/11 09:20:15;;;;;;;7.43;2.40;;;;;;;31.03;50.46;101016.28;5188233;28;20039;-72
2023/06/11 09:22:45;;;;;;;3.33;2.20;;;;;;;30.77;49.13;101009.44;5185850;28;20394;-72
2023/06/11 09:25:19;;;;;;;4.38;2.17;;;;;;;31.37;49.21;101008.72;5185715;28;20076;-70
2023/06/11 09:27:49;;;;;;;3.72;2.05;;;;;;;30.21;45.74;101016.75;5184483;28;20032;-71
2023/06/11 09:30:20;;;;;;;3.40;1.95;;;;;;;29.99;47.40;101014.69;5181287;28;20029;-71
2023/06/11 09:32:50;;;;;;;3.80;2.00;;;;;;;28.88;47.43;101014.16;5183875;28;20430;-72
2023/06/11 09:35:20;;;;;;;3.95;2.13;;;;;;;29.68;47.96;101013.66;5184696;28;20044;-71
2023/06/11 09:37:52;;;;;;;3.40;1.80;;;;;;;30.35;49.21;101013.38;5179736;28;20439;-72
2023/06/11 09:40:25;;;;;;;4.55;2.10;;;;;;;29.75;47.90;101014.69;5176829;28;20033;-72
2023/06/11 09:42:56;;;;;;;5.55;1.92;;;;;;;29.51;46.51;101015.47;5180106;28;20045;-72
2023/06/11 09:45:27;;;;;;;4.03;1.65;;;;;;;28.60;48.07;101025.25;5175912;28;20061;-71
2023/06/11 09:47:59;;;;;;;3.85;1.90;;;;;;;28.89;45.62;101023.13;5175075;28;20125;-71
2023/06/11 09:50:32;;;;;;;6.10;2.00;;;;;;;28.50;45.57;101023.69;5176992;28;20029;-71
2023/06/11 09:53:04;;;;;;;3.58;1.92;;;;;;;28.31;48.95;101029.25;5185396;28;20048;-72
2023/06/11 09:55:35;;;;;;;4.82;1.77;;;;;;;28.31;47.14;101019.31;5181524;28;20025;-72
2023/06/11 09:58:06;;;;;;;3.33;1.60;;;;;;;29.28;47.03;101018.91;5181080;28;20053;-72
2023/06/11 10:00:36;;;;;;;6.50;1.90;;;;;;;29.06;46.77;101035.66;5182863;28;20038;-72
2023/06/11 10:03:06;;;;;;;2.90;1.88;;;;;;;30.14;44.81;101015.75;5180740;28;20963;-72
2023/06/11 10:05:37;;;;;;;6.33;1.93;;;;;;;28.23;46.78;101027.31;5179816;28;20036;-72
2023/06/11 10:08:13;;;;;;;6.47;2.17;;;;;;;28.81;44.90;101021.19;5178487;28;20392;-72
2023/06/11 10:10:45;;;;;;;3.50;1.83;;;;;;;28.84;46.43;101020.00;5180355;28;20276;-72
2023/06/11 10:13:37;;;;;;;4.43;1.90;;;;;;;27.70;46.23;101028.28;5178039;28;20064;-70
2023/06/11 10:16:08;;;;;;;4.53;1.90;;;;;;;28.47;48.33;101030.22;5178443;28;20103;-71
2023/06/11 10:18:38;;;;;;;3.47;2.15;;;;;;;28.56;47.60;101023.03;5181588;28;20452;-72
2023/06/11 10:21:09;;;;;;;5.23;1.90;;;;;;;29.08;47.51;101020.19;5177212;28;20116;-71
2023/06/11 10:23:41;;;;;;;7.80;1.75;;;;;;;28.62;46.88;101022.44;5179796;28;20303;-71
2023/06/11 10:26:11;;;;;;;5.50;1.88;;;;;;;27.65;47.30;101009.94;5174365;28;20041;-70
2023/06/11 10:28:49;;;;;;;4.23;2.00;;;;;;;27.30;46.52;101015.25;5181600;28;20042;-71
2023/06/11 10:31:26;;;;;;;6.43;2.00;;;;;;;27.35;47.90;101021.03;5179222;28;20342;-70
2023/06/11 10:34:04;;;;;;;2.67;1.80;;;;;;;27.34;48.04;101015.81;5179868;28;20045;-71
2023/06/11 10:36:40;;;;;;;5.32;2.10;;;;;;;27.28;47.18;101016.41;5183757;28;20179;-71
2023/06/11 10:39:20;;;;;;;4.03;1.90;;;;;;;27.85;47.76;101021.41;5179982;28;20050;-71
2023/06/11 10:42:02;;;;;;;2.80;1.80;;;;;;;27.54;46.45;101017.38;5184827;28;20033;-72
2023/06/11 10:44:40;;;;;;;4.22;1.70;;;;;;;27.23;46.72;101016.88;5183617;28;20042;-71
2023/06/11 10:47:11;;;;;;;6.63;1.63;;;;;;;27.74;47.09;101014.44;5184372;28;20480;-70
2023/06/11 10:49:41;;;;;;;3.72;1.88;;;;;;;28.20;47.25;101014.19;5187012;28;20487;-72
2023/06/11 10:52:12;;;;;;;3.25;2.00;;;;;;;27.59;43.80;101010.56;5185427;28;20435;-70
2023/06/11 10:54:45;;;;;;;5.53;1.85;;;;;;;27.71;46.40;101014.75;5184782;28;20048;-72
2023/06/11 10:57:16;;;;;;;4.70;1.73;;;;;;;27.20;44.62;101019.84;5182499;28;20483;-70
2023/06/11 10:59:49;;;;;;;3.13;1.60;;;;;;;27.31;44.69;101008.88;5184972;28;20057;-72
2023/06/11 11:02:21;;;;;;;4.13;1.80;;;;;;;27.98;45.81;101008.44;5183254;28;20041;-72
2023/06/11 11:04:51;;;;;;;3.83;1.70;;;;;;;28.10;44.91;101015.28;5184732;28;20041;-71
2023/06/11 11:07:33;;;;;;;3.33;2.03;;;;;;;27.59;45.33;101010.56;5182390;28;20040;-71
2023/06/11 11:10:05;;;;;;;4.13;1.80;;;;;;;27.59;46.14;101010.56;5181592;28;20045;-72
2023/06/11 11:12:41;;;;;;;2.40;1.63;;;;;;;27.98;46.76;101000.38;5186702;28;20041;-71
2023/06/11 11:15:14;;;;;;;;;;;;;;;28.18;45.05;101002.75;5187170;28;20041;-71
2023/06/11 11:17:44;;;;;;;3.42;2.03;;;;;;;28.13;45.91;100993.47;5187805;28;19984;-71
2023/06/11 11:20:17;;;;;;;5.63;2.00;;;;;;;28.10;45.49;101001.84;5185059;28;20495;-71
2023/06/11 11:22:51;;;;;;;5.72;2.00;;;;;;;27.76;45.52;100999.00;5186878;28;20032;-70
2023/06/11 11:25:25;;;;;;;3.15;1.88;;;;;;;27.83;45.80;100983.97;5186469;28;20052;-72
2023/06/11 11:27:56;;;;;;;4.00;1.90;;;;;;;28.06;47.61;100990.53;5180491;28;20022;-71
2023/06/11 11:30:28;;;;;;;4.43;1.50;;;;;;;28.09;46.26;100987.53;5184290;28;20084;-71
2023/06/11 11:32:59;;;;;;;6.28;3.20;;;;;;;28.22;47.44;100976.38;5186332;28;20022;-71
2023/06/11 11:35:29;;;;;;;4.55;1.80;;;;;;;27.47;45.78;100982.22;5184855;28;20044;-71
2023/06/11 11:38:00;;;;;;;3.55;1.60;;;;;;;27.77;47.11;100979.19;5179746;28;20140;-72
2023/06/11 11:40:30;;;;;;;4.95;1.70;;;;;;;27.54;46.68;100980.63;5181536;28;20041;-72
2023/06/11 11:43:00;;;;;;;4.10;1.90;;;;;;;27.96;46.92;100981.72;5185315;28;20071;-72
2023/06/11 11:45:33;;;;;;;7.25;2.45;;;;;;;27.50;46.96;100975.69;5184348;28;20289;-72
2023/06/11 11:48:07;;;;;;;8.93;2.03;;;;;;;27.20;49.98;100976.91;5182933;28;20108;-71
2023/06/11 11:50:38;;;;;;;3.50;1.90;;;;;;;27.74;50.36;100968.75;5183420;28;20067;-72
2023/06/11 11:53:13;;;;;;;4.53;2.10;;;;;;;27.41;48.17;100972.09;5184838;28;20087;-72
2023/06/11 11:55:46;;;;;;;5.55;2.08;;;;;;;27.25;47.99;100971.91;5186977;28;20515;-71
2023/06/11 11:58:16;;;;;;;3.13;2.10;;;;;;;27.26;47.00;100965.53;5183608;28;20658;-71
2023/06/11 12:00:51;;;;;;;3.45;1.90;;;;;;;27.38;48.54;100969.72;5185315;28;20427;-72
2023/06/11 12:03:23;;;;;;;4.53;2.17;;;;;;;27.32;49.35;100967.66;5179799;28;20030;-71
2023/06/11 12:06:20;;;;;;;3.13;2.13;;;;;;;27.42;47.94;100964.88;5186882;28;20033;-72
2023/06/11 12:08:50;;;;;;;4.72;2.13;;;;;;;27.64;47.38;100962.56;5187652;28;20131;-71
2023/06/11 12:11:21;;;;;;;6.35;1.83;;;;;;;27.32;45.84;100967.66;5183623;28;20121;-71
2023/06/11 12:13:51;;;;;;;4.38;2.13;;;;;;;27.55;47.10;100963.50;5186712;28;20046;-71
2023/06/11 12:16:22;;;;;;;5.18;2.05;;;;;;;27.64;47.11;100953.69;5181236;28;20134;-72
2023/06/11 12:18:53;;;;;;;3.70;2.10;;;;;;;27.71;47.22;100955.63;5183088;28;20022;-71
2023/06/11 12:21:23;;;;;;;4.00;1.98;;;;;;;27.70;47.53;100951.22;5182436;28;20045;-72
2023/06/11 12:23:53;;;;;;;4.03;1.95;;;;;;;27.81;46.70;100951.00;5185029;28;20497;-72
2023/06/11 12:26:24;;;;;;;3.80;2.07;;;;;;;27.87;47.90;100952.22;5178752;28;20037;-72
2023/06/11 12:28:54;;;;;;;3.67;2.17;;;;;;;27.74;46.29;100954.47;5189509;28;20788;-71
2023/06/11 12:31:24;;;;;;;2.80;1.87;;;;;;;27.55;45.07;100944.69;5183147;28;20296;-72
2023/06/11 12:33:56;;;;;;;7.70;2.10;;;;;;;27.69;47.63;100946.84;5190553;28;20279;-71
2023/06/11 12:36:26;;;;;;;2.97;1.92;;;;;;;27.55;48.14;100950.06;5182544;28;20030;-71
2023/06/11 12:38:56;;;;;;;3.47;2.00;;;;;;;27.40;45.88;100951.59;5184781;28;20022;-71
2023/06/11 12:41:27;;;;;;;4.25;1.88;;;;;;;27.52;47.95;100947.69;5184634;28;20279;-72
2023/06/11 12:43:57;;;;;;;4.30;2.10;;;;;;;27.53;46.56;100946.69;5190699;28;20435;-71
2023/06/11 12:46:28;;;;;;;4.30;2.00;;;;;;;27.31;46.69;100952.50;5188517;28;20026;-71
2023/06/11 12:48:58;;;;;;;5.97;2.00;;;;;;;27.27;44.52;100940.38;5189652;28;20148;-72
2023/06/11 12:51:29;;;;;;;5.83;2.03;;;;;;;27.38;48.04;100942.84;5186342;28;20614;-71
2023/06/11 12:53:59;;;;;;;3.70;1.90;;;;;;;27.10;44.26;100943.88;5190106;28;20280;-71
2023/06/11 12:56:29;;;;;;;5.43;2.30;;;;;;;26.92;46.23;100948.31;5187667;28;20495;-71
2023/06/11 12:58:59;;;;;;;3.60;2.10;;;;;;;27.07;46.05;100938.78;5184886;28;20360;-71
2023/06/11 13:01:30;;;;;;;3.17;1.90;;;;;;;27.20;44.17;100941.13;5187822;28;20029;-71
2023/06/11 13:04:01;;;;;;;5.68;1.83;;;;;;;27.55;44.84;100931.28;5189829;28;20306;-72
2023/06/11 13:06:31;;;;;;;3.30;1.80;;;;;;;27.49;46.49;100923.84;5186213;28;20472;-71
2023/06/11 13:09:02;;;;;;;6.40;2.10;;;;;;;27.15;44.98;100936.25;5186737;28;20288;-71
2023/06/11 13:11:33;;;;;;;3.90;2.17;;;;;;;27.06;45.28;100926.34;5187389;28;20368;-72
2023/06/11 13:14:04;;;;;;;3.72;1.88;;;;;;;27.24;43.22;100924.56;5188262;28;20052;-71
2023/06/11 13:16:34;;;;;;;2.90;1.80;;;;;;;27.37;42.91;100922.38;5183570;28;20579;-72
2023/06/11 13:19:05;;;;;;;2.38;1.73;;;;;;;27.44;46.47;100934.19;5186329;28;20124;-72
2023/06/11 13:21:36;;;;;;;7.03;2.00;;;;;;;27.57;44.82;100923.91;5187875;28;20030;-72
2023/06/11 13:24:06;;;;;;;3.67;2.20;;;;;;;27.34;45.63;100920.00;5187471;28;20045;-70
2023/06/11 13:26:36;;;;;;;6.00;1.70;;;;;;;27.43;46.41;100924.44;5186807;28;20030;-71
2023/06/11 13:29:07;;;;;;;4.15;1.83;;;;;;;27.55;44.69;100931.28;5184935;28;20473;-71
2023/06/11 13:31:39;;;;;;;4.30;1.70;;;;;;;27.65;45.37;100918.59;5183935;28;20064;-72
2023/06/11 13:34:09;;;;;;;3.28;1.92;;;;;;;27.29;43.20;100916.91;5185522;28;20041;-72
2023/06/11 13:36:39;;;;;;;5.10;2.20;;;;;;;27.41;43.66;100918.38;5183406;28;20026;-72
2023/06/11 13:39:10;;;;;;;3.67;2.03;;;;;;;27.54;44.57;100913.47;5180034;28;20069;-71
2023/06/11 13:41:40;;;;;;;4.10;1.80;;;;;;;27.35;46.87;100910.06;5179752;28;20032;-72
2023/06/11 13:44:10;;;;;;;2.37;1.67;;;;;;;27.40;44.03;100916.69;5188916;28;20250;-70
2023/06/11 13:46:41;;;;;;;5.28;1.80;;;;;;;27.36;44.01;100912.63;5191404;28;20782;-71